Huaral, Peru
Current Conditions -  °F | °C
As of 5:00 AM on Monday 22 Dec 2014 (Local Time) from SPIM Reporting Station
Overcast Overcast  
Wind Chill: 66°   Ceiling: 1800
Heat Index: 66°   Visibility: 6mi
Dew Point: 63°   Wind: 3mph
Humidity: 88%   Direction: 170°S
Pressure: 29.91"   Gusts: NA
Location:  11.5°S, 77.21°W
Report Text: SPIM 221000Z 17003KT 9999 OVC018 19/17 Q1013 NOSIG RMK PP000
Loading
Personal Weather Stations






























Interactive Weather Map New forecast layout! Learn more

10-Day Weather Forecast

Advertisements
Track Severe Weather on mobile